Time;durP1;ratioP1;P1;durP2;ratioP2;P2;SDS_P1;SDS_P2;PMS_P1;PMS_P2;Temp;Humidity;BMP_temperature;BMP_pressure;BME280_temperature;BME280_humidity;BME280_pressure;Samples;Min_cycle;Max_cycle;Signal;HPM_P1;HPM_P2
2021/09/09 00:01:09;;;;;;;5.07;4.03;;;14.00;60.90;;;13.59;45.75;95042.28;5031090;28;20285;-79
2021/09/09 00:03:36;;;;;;;6.50;4.38;;;13.90;60.70;;;13.57;45.69;95031.97;5027602;28;20298;-79
2021/09/09 00:06:04;;;;;;;5.78;4.22;;;13.90;60.80;;;13.54;45.35;95042.13;5010265;28;20235;-79
2021/09/09 00:08:34;;;;;;;5.85;4.70;;;13.90;61.80;;;13.51;46.05;95042.50;5011362;28;20196;-79
2021/09/09 00:11:01;;;;;;;7.15;4.50;;;14.00;60.90;;;13.48;46.08;95041.09;5014545;28;20227;-79
2021/09/09 00:13:28;;;;;;;6.68;4.60;;;13.90;61.00;;;13.45;46.19;95041.50;5028618;28;20240;-79
2021/09/09 00:15:56;;;;;;;5.43;4.40;;;13.90;61.10;;;13.42;46.27;95031.38;5011554;28;20266;-79
2021/09/09 00:18:25;;;;;;;6.93;4.47;;;13.80;61.30;;;13.39;46.57;95037.06;5011718;28;20247;-79
2021/09/09 00:20:54;;;;;;;6.43;4.40;;;13.80;61.40;;;13.35;46.62;95034.00;5014962;28;20224;-79
2021/09/09 00:23:22;;;;;;;5.95;4.30;;;13.80;61.50;;;13.32;46.55;95037.06;5042207;28;20192;-79
2021/09/09 00:25:49;;;;;;;8.85;4.47;;;13.70;61.50;;;13.30;46.68;95036.44;5018645;28;20222;-79
2021/09/09 00:28:17;;;;;;;7.63;4.72;;;13.70;61.50;;;13.26;46.74;95028.13;5030635;28;20651;-79
2021/09/09 00:30:46;;;;;;;9.05;4.65;;;13.70;61.70;;;13.23;46.82;95023.31;5018117;28;20243;-79
2021/09/09 00:33:14;;;;;;;5.13;4.18;;;13.70;61.70;;;13.21;46.69;95027.16;5002415;28;20189;-78
2021/09/09 00:35:43;;;;;;;5.80;4.63;;;13.60;61.70;;;13.19;46.73;95026.53;5025900;28;20347;-79
2021/09/09 00:38:10;;;;;;;6.95;4.57;;;13.60;61.80;;;13.15;47.10;95020.88;5025345;28;20188;-77
2021/09/09 00:40:37;;;;;;;6.10;4.50;;;13.60;61.90;;;13.17;47.14;95029.38;5014136;28;20285;-78
2021/09/09 00:43:04;;;;;;;5.35;4.13;;;13.60;61.90;;;13.15;47.04;95025.34;5014887;28;20574;-79
2021/09/09 00:45:31;;;;;;;6.25;4.50;;;13.60;61.90;;;13.14;47.51;95019.25;5014824;28;20756;-79
2021/09/09 00:47:58;;;;;;;6.38;4.45;;;13.60;62.10;;;13.12;47.17;95023.91;5015053;28;20197;-79
2021/09/09 00:50:25;;;;;;;6.25;3.90;;;13.60;62.20;;;13.12;47.23;95024.72;5018619;28;20251;-77
2021/09/09 00:52:52;;;;;;;5.85;4.03;;;13.50;62.00;;;13.09;47.53;95027.75;5014927;28;20295;-78
2021/09/09 00:55:20;;;;;;;5.78;4.40;;;13.50;62.00;;;13.08;47.08;95027.97;5014967;28;20642;-78
2021/09/09 00:57:48;;;;;;;5.32;4.30;;;13.40;62.00;;;13.04;46.83;95024.94;5008642;28;20203;-78
2021/09/09 01:00:16;;;;;;;4.80;3.97;;;13.40;61.90;;;13.00;47.03;95023.72;5018197;28;20251;-79
2021/09/09 01:02:44;;;;;;;4.90;3.80;;;13.40;62.00;;;12.96;46.95;95019.88;5029012;28;20191;-78
2021/09/09 01:05:12;;;;;;;4.20;3.42;;;13.40;61.90;;;12.91;47.12;95017.03;5008779;28;20227;-77
2021/09/09 01:07:41;;;;;;;5.40;4.10;;;13.40;61.90;;;12.90;46.99;95023.31;5034267;28;20192;-78
2021/09/09 01:10:09;;;;;;;5.15;4.10;;;13.30;62.10;;;12.86;47.05;95022.13;5034356;28;20283;-78
2021/09/09 01:12:37;;;;;;;5.47;4.35;;;13.30;62.00;;;12.81;47.14;95020.09;5032400;28;20201;-78
2021/09/09 01:15:06;;;;;;;6.35;3.88;;;13.20;61.90;;;12.77;47.13;95027.59;5015564;28;20192;-78
2021/09/09 01:17:33;;;;;;;4.38;3.75;;;13.20;62.00;;;12.72;47.09;95023.94;5023093;28;20211;-78
2021/09/09 01:20:00;;;;;;;5.72;4.05;;;13.20;62.00;;;12.69;47.27;95024.34;5032516;28;20309;-79
2021/09/09 01:22:28;;;;;;;4.70;4.07;;;13.10;62.00;;;12.64;47.14;95023.09;5013784;28;20201;-78
2021/09/09 01:24:55;;;;;;;6.65;4.05;;;13.10;62.20;;;12.60;47.38;95016.66;5026966;28;20657;-79
2021/09/09 01:27:23;;;;;;;5.45;4.03;;;13.00;62.10;;;12.58;47.60;95017.84;5030192;28;20194;-79
2021/09/09 01:29:50;;;;;;;5.80;4.00;;;13.00;62.20;;;12.49;47.51;95010.16;5014586;28;20259;-79
2021/09/09 01:32:17;;;;;;;6.38;3.78;;;13.00;62.30;;;12.49;47.44;95025.94;5014167;28;20189;-79
2021/09/09 01:34:45;;;;;;;5.82;4.53;;;13.00;62.40;;;12.47;47.68;95027.16;5012881;28;20299;-79
2021/09/09 01:37:12;;;;;;;6.65;4.20;;;13.00;62.50;;;12.43;47.77;95025.94;5012126;28;20248;-79
2021/09/09 01:39:44;;;;;;;5.28;4.25;;;12.90;62.50;;;12.37;47.77;95029.38;5011902;28;20255;-79
2021/09/09 01:42:12;;;;;;;5.30;4.47;;;12.80;62.80;;;12.28;47.68;95020.84;5027200;28;20221;-77
2021/09/09 01:44:40;;;;;;;5.82;4.70;;;12.80;62.50;;;12.26;47.68;95021.06;5028287;28;20304;-79
2021/09/09 01:47:07;;;;;;;6.85;5.50;;;12.80;62.50;;;12.21;47.82;95023.47;5004457;28;20228;-77
2021/09/09 01:49:35;;;;;;;7.20;4.60;;;12.70;62.60;;;12.15;47.99;95021.63;5012087;28;20223;-79
2021/09/09 01:52:02;;;;;;;7.03;4.65;;;12.70;62.60;;;12.10;47.93;95029.31;5013817;28;20221;-78
2021/09/09 01:54:30;;;;;;;8.35;4.82;;;12.60;62.60;;;12.06;48.46;95013.13;5013752;28;20222;-79
2021/09/09 01:56:57;;;;;;;6.43;4.95;;;12.60;62.90;;;12.04;48.24;95017.75;5013826;28;20244;-79
2021/09/09 01:59:25;;;;;;;5.93;4.70;;;12.60;63.00;;;12.02;48.55;95025.03;5030063;28;20200;-79
2021/09/09 02:01:52;;;;;;;6.35;5.03;;;12.50;63.00;;;11.99;48.59;95020.97;5033299;28;20273;-78
2021/09/09 02:04:19;;;;;;;7.03;4.93;;;12.50;63.20;;;11.94;48.75;95010.22;5017134;28;20220;-79
2021/09/09 02:06:47;;;;;;;6.55;4.75;;;12.50;63.30;;;11.94;48.98;95015.47;5016196;28;20247;-79
2021/09/09 02:09:15;;;;;;;6.70;4.75;;;12.40;63.20;;;11.95;48.63;95017.09;4997239;28;20255;-80
2021/09/09 02:11:42;;;;;;;5.70;4.57;;;12.40;63.30;;;11.94;48.84;95020.75;4997186;28;20303;-79
2021/09/09 02:14:09;;;;;;;7.22;4.85;;;12.40;63.40;;;11.92;48.86;95020.13;5013461;28;20223;-79
2021/09/09 02:16:36;;;;;;;8.20;4.90;;;12.40;63.40;;;11.87;48.89;95019.91;5013369;28;20236;-79
2021/09/09 02:19:03;;;;;;;4.90;4.35;;;12.40;63.50;;;11.88;49.05;95024.16;5012774;28;20205;-78
2021/09/09 02:21:32;;;;;;;5.82;4.63;;;12.30;63.50;;;11.86;49.23;95018.28;5008838;28;20272;-79
2021/09/09 02:23:59;;;;;;;7.97;4.88;;;12.30;63.50;;;11.84;49.33;95020.31;5013226;28;20213;-79
2021/09/09 02:26:26;;;;;;;7.60;4.80;;;12.30;63.70;;;11.85;49.24;95019.28;5010303;28;20270;-79
2021/09/09 02:28:54;;;;;;;6.35;4.65;;;12.30;63.80;;;11.84;49.09;95021.13;4996883;28;20602;-79
2021/09/09 02:31:21;;;;;;;6.40;4.90;;;12.20;63.60;;;11.79;49.22;95012.19;5013169;28;20296;-78
2021/09/09 02:33:48;;;;;;;5.55;4.43;;;12.30;63.60;;;11.78;48.89;95013.19;4996845;28;20658;-78
2021/09/09 02:36:15;;;;;;;7.55;4.85;;;12.20;63.60;;;11.73;49.29;95018.22;4996784;28;20268;-79
2021/09/09 02:38:43;;;;;;;5.63;4.72;;;12.20;63.70;;;11.68;49.40;95014.38;4996838;28;20189;-79
2021/09/09 02:41:10;;;;;;;7.05;5.20;;;12.20;63.70;;;11.65;49.42;95017.38;5012800;28;20220;-78
2021/09/09 02:43:37;;;;;;;6.93;5.18;;;12.10;63.70;;;11.62;49.41;95014.34;5012825;28;20640;-79
2021/09/09 02:46:04;;;;;;;6.28;4.70;;;12.10;63.90;;;11.58;49.62;95016.53;5005397;28;20256;-79
2021/09/09 02:48:31;;;;;;;5.15;4.57;;;12.10;63.80;;;11.55;49.37;95022.22;5012289;28;20197;-78
2021/09/09 02:50:59;;;;;;;7.88;4.80;;;12.00;63.90;;;11.52;49.65;95015.53;4996712;28;20221;-79
2021/09/09 02:53:26;;;;;;;6.35;4.97;;;12.00;64.00;;;11.47;49.81;95012.66;5012309;28;20263;-79
2021/09/09 02:55:53;;;;;;;5.70;5.00;;;12.00;64.00;;;11.44;49.62;95018.31;4996507;28;20224;-78
2021/09/09 02:58:20;;;;;;;7.78;5.13;;;11.90;64.10;;;11.41;50.14;95018.69;5013743;28;20200;-79
2021/09/09 03:00:47;;;;;;;6.32;4.65;;;11.90;64.20;;;11.36;50.15;95006.16;5013792;28;20275;-78
2021/09/09 03:03:15;;;;;;;6.03;5.00;;;11.90;64.30;;;11.38;50.32;95013.84;5005256;28;20223;-79
2021/09/09 03:05:42;;;;;;;8.02;5.40;;;11.90;64.50;;;11.38;50.06;95017.25;5012487;28;20237;-79
2021/09/09 03:08:09;;;;;;;9.07;4.95;;;11.80;64.40;;;11.34;50.23;95005.53;5011952;28;20284;-79
2021/09/09 03:10:37;;;;;;;6.60;4.72;;;11.80;64.50;;;11.34;50.40;95015.25;5030641;28;20262;-79
2021/09/09 03:13:04;;;;;;;6.13;4.45;;;11.80;64.50;;;11.32;50.61;95014.63;5031801;28;20196;-78
2021/09/09 03:15:32;;;;;;;6.10;4.80;;;11.80;64.60;;;11.30;50.55;95016.63;5032039;28;20267;-79
2021/09/09 03:17:59;;;;;;;6.15;5.40;;;11.70;64.70;;;11.29;50.48;95017.63;5001570;28;20550;-79
2021/09/09 03:20:27;;;;;;;10.15;5.20;;;11.80;64.80;;;11.27;50.65;95012.56;4996076;28;20216;-78
2021/09/09 03:22:54;;;;;;;5.88;4.65;;;11.70;64.80;;;11.28;50.86;95013.38;4995563;28;20209;-79
2021/09/09 03:25:21;;;;;;;7.43;4.78;;;11.70;64.90;;;11.28;50.91;95023.88;5017730;28;21772;-77
2021/09/09 03:27:48;;;;;;;6.85;4.72;;;11.70;65.00;;;11.28;51.10;95008.13;5011062;28;20284;-79
2021/09/09 03:30:16;;;;;;;6.97;4.60;;;11.70;65.10;;;11.27;50.73;95014.41;5011974;28;20256;-78
2021/09/09 03:32:43;;;;;;;7.15;5.10;;;11.70;65.00;;;11.25;50.92;95016.38;5016187;28;20204;-79
2021/09/09 03:35:10;;;;;;;7.65;4.70;;;11.70;65.20;;;11.23;50.97;95000.84;5027908;28;20225;-79
2021/09/09 03:37:37;;;;;;;6.93;4.80;;;11.70;65.10;;;11.23;50.96;95005.25;4979508;28;20203;-79
2021/09/09 03:40:06;;;;;;;7.57;4.55;;;11.70;65.20;;;11.22;51.16;94999.22;5011937;28;20209;-79
2021/09/09 03:42:33;;;;;;;6.22;4.65;;;11.70;65.30;;;11.20;51.09;94998.59;5012173;28;20244;-79
2021/09/09 03:45:01;;;;;;;6.20;4.35;;;11.70;65.30;;;11.19;51.19;94991.72;5044043;28;20678;-79
2021/09/09 03:47:28;;;;;;;7.50;4.25;;;11.70;65.30;;;11.18;50.99;95009.28;5031396;28;20674;-79
2021/09/09 03:49:55;;;;;;;6.82;5.07;;;11.60;65.30;;;11.15;51.07;95001.78;5032008;28;20189;-79
2021/09/09 03:52:23;;;;;;;5.95;4.65;;;11.60;65.30;;;11.14;51.05;95001.97;5030882;28;20702;-79
2021/09/09 03:54:51;;;;;;;5.47;4.45;;;11.60;65.30;;;11.09;51.32;94989.44;5022969;28;20251;-77
2021/09/09 03:57:18;;;;;;;5.68;4.45;;;11.60;65.30;;;11.08;51.00;94994.88;5001419;28;20578;-78
2021/09/09 03:59:45;;;;;;;6.22;4.35;;;11.50;65.20;;;11.06;51.09;94992.47;5010710;28;20224;-79
2021/09/09 04:02:12;;;;;;;6.82;4.68;;;11.50;65.30;;;11.02;51.31;94991.19;4995554;28;20238;-79
2021/09/09 04:04:40;;;;;;;8.07;4.82;;;11.50;65.30;;;10.99;51.54;94997.66;5028693;28;20244;-79
2021/09/09 04:07:07;;;;;;;7.28;4.30;;;11.50;65.40;;;10.97;51.64;94994.41;5011297;28;20572;-79
2021/09/09 04:09:37;;;;;;;5.80;4.57;;;11.50;65.50;;;10.92;51.36;94991.53;5019968;28;20596;-80
2021/09/09 04:12:05;;;;;;;8.13;4.88;;;11.50;65.50;;;10.89;51.84;94995.38;5031640;28;20290;-79
2021/09/09 04:14:33;;;;;;;7.07;4.50;;;11.40;65.50;;;10.86;51.63;95001.00;5004481;28;20239;-79
2021/09/09 04:17:00;;;;;;;5.35;4.43;;;11.40;65.50;;;10.83;51.40;94992.72;5020333;28;20221;-77
2021/09/09 04:19:28;;;;;;;5.05;4.53;;;11.30;65.40;;;10.76;51.53;94997.91;4996302;28;20259;-77
2021/09/09 04:21:55;;;;;;;5.90;4.55;;;11.30;65.50;;;10.78;51.30;95005.56;5030852;28;20315;-78
2021/09/09 04:24:22;;;;;;;8.43;5.00;;;11.30;65.50;;;10.74;51.71;94999.88;5047332;28;20547;-79
2021/09/09 04:26:50;;;;;;;5.45;4.78;;;11.30;65.60;;;10.71;51.84;95010.78;5028972;28;20221;-79
2021/09/09 04:29:17;;;;;;;6.93;4.78;;;11.30;65.80;;;10.69;51.84;95010.16;5001983;28;20204;-79
2021/09/09 04:31:44;;;;;;;7.72;4.88;;;11.20;65.60;;;10.67;51.75;95006.94;5029942;28;20295;-79
2021/09/09 04:34:12;;;;;;;6.03;4.95;;;11.30;65.90;;;10.64;52.19;95010.72;4995610;28;20209;-79
2021/09/09 04:36:39;;;;;;;7.40;4.95;;;11.20;65.90;;;10.63;51.94;95014.38;4986512;28;20209;-77
2021/09/09 04:39:06;;;;;;;5.60;4.63;;;11.20;65.90;;;10.63;52.27;95014.38;5024943;28;20206;-79
2021/09/09 04:41:33;;;;;;;8.52;4.70;;;11.10;66.00;;;10.63;52.15;95019.59;5025298;28;20316;-79
2021/09/09 04:44:01;;;;;;;6.03;4.70;;;11.10;66.00;;;10.62;52.42;95011.91;5010651;28;20263;-79
2021/09/09 04:46:28;;;;;;;7.28;5.20;;;11.10;66.10;;;10.64;52.27;95007.28;5005337;28;20247;-79
2021/09/09 04:48:55;;;;;;;6.55;5.10;;;11.10;66.10;;;10.64;52.20;95012.53;5009308;28;20691;-79
2021/09/09 04:51:22;;;;;;;6.82;5.38;;;11.10;66.20;;;10.66;52.12;95013.16;4992518;28;20224;-78
2021/09/09 04:53:49;;;;;;;8.43;5.30;;;11.10;66.30;;;10.67;52.17;95006.94;4993164;28;20623;-78
2021/09/09 04:56:16;;;;;;;10.05;5.68;;;11.10;66.40;;;10.72;52.38;95017.66;4994171;28;20304;-78
2021/09/09 04:58:44;;;;;;;8.43;5.32;;;11.10;66.50;;;10.77;52.55;95012.63;4994593;28;20197;-78
2021/09/09 05:01:11;;;;;;;8.35;5.63;;;11.10;66.60;;;10.80;52.48;94999.16;5010755;28;20206;-78
2021/09/09 05:03:39;;;;;;;9.40;6.05;;;11.20;66.70;;;10.87;52.24;95009.69;4994215;28;20205;-78
2021/09/09 05:06:06;;;;;;;7.65;6.15;;;11.20;66.90;;;10.92;52.44;95009.13;5014439;28;20466;-78
2021/09/09 05:08:34;;;;;;;7.78;5.95;;;11.20;66.90;;;10.98;52.50;95011.78;5019588;28;20659;-79
2021/09/09 05:11:01;;;;;;;7.95;6.00;;;11.20;66.90;;;11.04;52.72;95013.63;5023627;28;20308;-79
2021/09/09 05:13:29;;;;;;;7.55;5.88;;;11.20;67.00;;;11.12;52.39;95006.59;5013156;28;20208;-79
2021/09/09 05:15:56;;;;;;;8.60;5.88;;;11.30;67.10;;;11.18;52.52;95006.66;5033862;28;20209;-79
2021/09/09 05:18:23;;;;;;;10.00;5.97;;;11.40;67.20;;;11.26;52.44;95010.94;5017719;28;20239;-79
2021/09/09 05:20:50;;;;;;;7.38;5.78;;;11.40;68.10;;;11.33;52.39;95011.78;5033785;28;20223;-79
2021/09/09 05:23:20;;;;;;;7.75;5.97;;;11.50;67.30;;;11.37;52.54;94999.88;5033820;28;20205;-79
2021/09/09 05:25:47;;;;;;;7.20;5.68;;;11.50;67.30;;;11.46;52.61;95002.34;5017602;28;20436;-79
2021/09/09 05:28:15;;;;;;;6.90;5.75;;;11.60;67.50;;;11.52;52.29;94999.78;5034053;28;20538;-79
2021/09/09 05:30:42;;;;;;;6.70;5.30;;;11.70;67.60;;;11.62;52.68;95001.22;5033794;28;20229;-79
2021/09/09 05:33:10;;;;;;;7.25;5.72;;;11.80;67.70;;;11.68;52.63;94996.00;5017822;28;20666;-79
2021/09/09 05:35:37;;;;;;;6.93;5.57;;;11.80;67.70;;;11.77;52.64;95004.50;5034156;28;20674;-78
2021/09/09 05:38:04;;;;;;;10.13;5.93;;;11.80;68.60;;;11.88;52.46;95003.13;5033984;28;20197;-79
2021/09/09 05:40:31;;;;;;;12.43;5.60;;;11.90;67.90;;;11.95;52.93;94998.72;5017587;28;20302;-80
2021/09/09 05:42:58;;;;;;;8.00;5.28;;;12.00;67.90;;;12.04;52.85;94990.69;5034963;28;20283;-79
2021/09/09 05:45:26;;;;;;;6.53;5.70;;;12.10;68.00;;;12.14;52.99;94993.72;5024186;28;20220;-78
2021/09/09 05:47:53;;;;;;;9.25;5.25;;;12.10;68.00;;;12.23;52.79;94991.72;5022035;28;20236;-78
2021/09/09 05:50:20;;;;;;;8.25;5.68;;;12.30;68.20;;;12.33;53.16;94994.78;4999712;28;20274;-78
2021/09/09 05:52:48;;;;;;;10.63;5.70;;;12.30;68.20;;;12.43;53.03;94989.91;5030096;28;20200;-78
2021/09/09 05:55:15;;;;;;;8.45;5.55;;;12.40;68.30;;;12.56;53.00;94994.38;5002672;28;20222;-78
2021/09/09 05:57:42;;;;;;;9.38;6.15;;;12.50;68.40;;;12.64;52.96;94981.00;5019633;28;20185;-78
2021/09/09 06:00:10;;;;;;;6.68;5.22;;;12.60;68.40;;;12.78;53.08;94991.53;5014580;28;20228;-80
2021/09/09 06:02:46;;;;;;;9.15;5.70;;;12.70;68.50;;;12.88;53.13;94986.69;5004242;28;20292;-78
2021/09/09 06:05:16;;;;;;;8.70;5.45;;;12.80;68.70;;;13.00;53.03;94984.25;5012389;28;20499;-79
2021/09/09 06:07:44;;;;;;;6.05;5.45;;;12.90;68.70;;;13.11;53.18;94977.53;5004300;28;20197;-78
2021/09/09 06:10:12;;;;;;;7.53;5.90;;;13.00;68.70;;;13.19;53.10;94973.88;5019638;28;20216;-79
2021/09/09 06:12:39;;;;;;;6.53;5.43;;;13.10;68.80;;;13.34;53.04;94982.34;4988850;28;20211;-79
2021/09/09 06:15:07;;;;;;;8.82;5.45;;;13.20;68.70;;;13.46;53.16;94982.53;5021123;28;20205;-79
2021/09/09 06:17:36;;;;;;;6.50;5.40;;;13.30;68.70;;;13.58;53.04;94983.50;5024815;28;20204;-79
2021/09/09 06:20:05;;;;;;;7.38;5.82;;;13.40;68.60;;;13.71;53.12;94981.84;5005379;28;20201;-79
2021/09/09 06:22:33;;;;;;;7.22;5.20;;;13.50;68.80;;;13.84;53.06;94988.88;5012344;28;20192;-78
2021/09/09 06:25:00;;;;;;;7.50;5.25;;;13.60;68.80;;;13.96;53.15;94987.19;5021627;28;20673;-79
2021/09/09 06:27:27;;;;;;;7.68;5.43;;;13.80;68.70;;;14.09;52.85;94981.03;5014330;28;20184;-80
2021/09/09 06:29:55;;;;;;;8.85;5.45;;;13.80;68.60;;;14.20;52.81;94990.91;5023423;28;20192;-78
2021/09/09 06:32:22;;;;;;;8.80;5.40;;;13.90;68.70;;;14.33;52.81;94991.84;5004254;28;20188;-80
2021/09/09 06:34:49;;;;;;;9.73;5.95;;;14.00;68.70;;;14.46;52.95;94988.31;5021732;28;20242;-80
2021/09/09 06:37:17;;;;;;;7.35;5.55;;;14.20;68.60;;;14.56;52.54;94986.00;5025890;28;20287;-79
2021/09/09 06:39:44;;;;;;;7.60;5.75;;;14.40;68.70;;;14.67;52.60;94984.53;5021908;28;20274;-79
2021/09/09 06:42:11;;;;;;;6.30;5.15;;;14.40;68.70;;;14.78;52.44;94988.28;4996905;28;20227;-79
2021/09/09 06:44:39;;;;;;;7.30;5.55;;;14.60;68.50;;;14.86;52.28;94988.81;5021348;28;20200;-79
2021/09/09 06:47:06;;;;;;;6.75;5.15;;;14.60;68.40;;;14.97;52.48;94981.22;5005195;28;20311;-79
2021/09/09 06:49:33;;;;;;;9.98;5.60;;;14.70;68.50;;;15.07;52.37;94983.38;5003864;28;20671;-78
2021/09/09 06:52:01;;;;;;;7.05;5.10;;;14.80;68.40;;;15.17;52.33;94981.03;5006173;28;20267;-79
2021/09/09 06:54:28;;;;;;;7.45;5.50;;;14.90;68.40;;;15.27;52.22;94986.63;5006141;28;20562;-78
2021/09/09 06:56:55;;;;;;;7.10;5.00;;;15.00;68.40;;;15.39;52.28;94993.81;5023575;28;20231;-79
2021/09/09 06:59:23;;;;;;;6.45;5.30;;;15.10;68.40;;;15.47;52.27;94988.25;5023482;28;20196;-79
2021/09/09 07:01:50;;;;;;;6.50;5.22;;;15.30;68.40;;;15.59;52.11;94994.41;5023920;28;20240;-81
2021/09/09 07:04:18;;;;;;;6.75;5.18;;;15.30;68.30;;;15.72;52.34;94993.47;5025445;28;20335;-79
2021/09/09 07:06:45;;;;;;;8.27;5.38;;;15.40;68.40;;;15.84;51.98;94993.53;5021654;28;20224;-79
2021/09/09 07:09:12;;;;;;;6.28;4.78;;;15.50;68.40;;;15.94;51.93;94993.81;5020748;28;20227;-79
2021/09/09 07:11:39;;;;;;;7.75;5.72;;;15.60;68.50;;;16.07;52.16;94998.13;5014199;28;20595;-79
2021/09/09 07:14:06;;;;;;;9.15;5.13;;;15.70;68.40;;;16.17;51.72;94990.47;5021008;28;20193;-78
2021/09/09 07:16:34;;;;;;;9.13;4.95;;;15.90;68.40;;;16.32;52.04;94990.03;5019896;28;20636;-79
2021/09/09 07:19:01;;;;;;;11.95;5.30;;;16.00;68.40;;;16.46;51.73;94992.50;5019656;28;20556;-79
2021/09/09 07:21:29;;;;;;;6.65;4.78;;;16.00;68.30;;;16.59;51.57;94988.84;5021852;28;20266;-79
2021/09/09 07:23:56;;;;;;;6.00;4.80;;;16.20;68.30;;;16.73;51.34;94994.72;5020484;28;20201;-79
2021/09/09 07:26:24;;;;;;;6.47;5.57;;;16.30;68.20;;;16.86;51.55;94997.16;5021927;28;20227;-79
2021/09/09 07:28:51;;;;;;;5.68;4.82;;;16.50;68.30;;;16.99;51.38;94995.34;5021745;28;20201;-79
2021/09/09 07:31:18;;;;;;;12.32;5.28;;;16.50;68.10;;;17.11;51.38;94985.56;5012059;28;20244;-79
2021/09/09 07:33:45;;;;;;;7.75;4.47;;;16.60;68.00;;;17.24;51.27;94993.28;5020927;28;20250;-79
2021/09/09 07:36:13;;;;;;;6.22;4.80;;;16.80;68.10;;;17.34;51.31;94983.94;5006068;28;20303;-80
2021/09/09 07:38:40;;;;;;;5.93;4.97;;;16.80;68.00;;;17.49;51.25;94986.94;5012402;28;20197;-80
2021/09/09 07:41:07;;;;;;;6.57;5.07;;;17.00;68.00;;;17.64;50.94;94994.41;5021066;28;20224;-79
2021/09/09 07:43:34;;;;;;;5.80;4.32;;;17.10;67.90;;;17.77;50.69;94996.78;5028470;28;20214;-79
2021/09/09 07:46:01;;;;;;;8.48;4.88;;;17.30;68.10;;;17.91;50.78;94996.50;5012017;28;20314;-79
2021/09/09 07:48:28;;;;;;;6.80;4.75;;;17.40;67.80;;;18.04;51.18;95004.22;5020516;28;20298;-80
2021/09/09 07:50:55;;;;;;;13.73;5.28;;;17.60;68.00;;;18.18;50.68;95006.59;5003397;28;20219;-79
2021/09/09 07:53:22;;;;;;;6.25;4.80;;;17.60;67.80;;;18.31;50.29;95001.00;5005110;28;20644;-80
2021/09/09 07:55:49;;;;;;;6.13;4.65;;;17.70;67.60;;;18.43;50.48;95006.28;5005567;28;20223;-79
2021/09/09 07:58:17;;;;;;;6.40;4.50;;;17.90;67.60;;;18.56;49.97;95003.28;5020037;28;20243;-80
2021/09/09 08:00:44;;;;;;;5.45;4.32;;;18.00;67.40;;;18.68;50.28;94992.59;5021226;28;20214;-80
2021/09/09 08:03:12;;;;;;;6.57;4.28;;;18.20;67.50;;;18.85;49.86;94999.78;4989434;28;20299;-80
2021/09/09 08:05:39;;;;;;;6.63;4.38;;;18.20;67.30;;;18.96;50.02;94993.59;5023531;28;20223;-80
2021/09/09 08:08:07;;;;;;;8.18;4.13;;;18.40;67.20;;;19.13;49.50;95004.22;5028021;28;20278;-80
2021/09/09 08:10:35;;;;;;;5.80;4.07;;;18.50;67.10;;;19.27;49.59;95001.22;5028426;28;20658;-80
2021/09/09 08:13:02;;;;;;;4.85;4.15;;;18.60;67.00;;;19.41;49.04;94991.03;5028488;28;20242;-81
2021/09/09 08:15:29;;;;;;;7.18;4.80;;;18.80;66.90;;;19.58;48.82;94991.00;5012245;28;20239;-79
2021/09/09 08:17:57;;;;;;;5.75;4.55;;;19.00;66.90;;;19.73;49.31;94996.50;4996174;28;20206;-80
2021/09/09 08:20:24;;;;;;;6.13;4.15;;;19.00;66.60;;;19.89;48.67;94991.41;4987078;28;20666;-78
2021/09/09 08:22:56;;;;;;;4.53;3.78;;;19.20;66.50;;;20.05;48.55;94997.72;5019162;28;20553;-79
2021/09/09 08:25:24;;;;;;;5.18;4.07;;;19.40;66.40;;;20.20;48.54;94991.75;5012436;28;20215;-79
2021/09/09 08:27:51;;;;;;;4.18;3.78;;;19.50;66.50;;;20.33;48.16;94999.34;5020211;28;20549;-79
2021/09/09 08:30:19;;;;;;;5.20;4.00;;;19.60;66.20;;;20.49;48.29;95002.94;5019767;28;20209;-79
2021/09/09 08:32:46;;;;;;;6.35;4.13;;;19.70;66.00;;;20.60;47.64;94991.34;5025114;28;20338;-80
2021/09/09 08:35:13;;;;;;;5.15;3.83;;;19.90;65.90;;;20.76;47.75;95002.16;5013920;28;20303;-80
2021/09/09 08:37:40;;;;;;;6.28;3.30;;;20.00;65.30;;;20.89;46.79;94996.41;5010559;28;20196;-80
2021/09/09 08:40:09;;;;;;;4.28;3.05;;;20.10;65.00;;;21.05;46.21;94999.19;4993774;28;20556;-80
2021/09/09 08:42:42;;;;;;;5.32;3.10;;;20.30;64.20;;;21.20;45.84;94995.81;5008354;28;20263;-80
2021/09/09 08:45:13;;;;;;;6.18;3.30;;;20.40;64.70;;;21.34;44.75;95002.31;5011582;28;20267;-80
2021/09/09 08:47:42;;;;;;;3.03;2.67;;;20.60;63.90;;;21.49;45.13;95001.59;5013740;28;20232;-79
2021/09/09 08:50:10;;;;;;;5.05;2.70;;;20.70;64.00;;;21.62;44.95;94995.03;5012652;28;20203;-79
2021/09/09 08:52:38;;;;;;;4.32;3.25;;;20.80;63.50;;;21.76;44.13;94992.69;5013015;28;20234;-80
2021/09/09 08:55:07;;;;;;;3.17;2.88;;;21.00;63.20;;;21.87;43.97;94993.53;4996134;28;20297;-80
2021/09/09 08:57:35;;;;;;;3.97;3.20;;;21.10;63.20;;;22.02;43.52;94998.13;5012573;28;20189;-79
2021/09/09 09:00:07;;;;;;;2.95;2.65;;;21.20;62.80;;;22.15;43.36;94992.28;5023326;28;20724;-79
2021/09/09 09:02:48;;;;;;;3.70;2.90;;;21.40;62.40;;;22.27;43.72;94993.94;5031809;28;20228;-79
2021/09/09 09:05:16;;;;;;;4.18;3.25;;;21.50;62.60;;;22.38;43.36;94992.91;5005641;28;20214;-79
2021/09/09 09:07:43;;;;;;;4.30;3.22;;;21.60;62.30;;;22.49;43.07;94999.88;4997568;28;20260;-80
2021/09/09 09:10:10;;;;;;;3.65;2.90;;;21.70;62.00;;;22.58;42.74;94994.78;5008608;28;20312;-80
2021/09/09 09:12:50;;;;;;;7.07;3.10;;;21.80;61.80;;;22.70;42.31;95000.72;5008547;28;20198;-80
2021/09/09 09:15:24;;;;;;;5.13;2.90;;;21.90;61.40;;;22.81;42.60;94995.34;5015602;28;20708;-79
2021/09/09 09:18:01;;;;;;;4.45;2.95;;;22.10;61.60;;;22.89;42.40;94994.81;4999803;28;20195;-80
2021/09/09 09:20:48;;;;;;;5.18;3.50;;;22.20;61.60;;;22.98;41.95;94990.53;5025067;28;20549;-80
2021/09/09 09:23:26;;;;;;;4.60;3.50;;;22.30;61.30;;;23.06;41.56;94991.06;4996667;28;20224;-80
2021/09/09 09:26:01;;;;;;;24.02;3.40;;;22.40;60.90;;;23.15;42.10;94995.59;4979859;28;20222;-80
2021/09/09 09:28:47;;;;;;;6.22;2.90;;;22.50;61.50;;;23.24;41.89;94989.75;5014081;28;20193;-80
2021/09/09 09:31:20;;;;;;;3.72;2.72;;;22.50;61.00;;;23.33;41.66;94996.94;4998533;28;20227;-80
2021/09/09 09:33:55;;;;;;;4.53;2.70;;;22.60;60.90;;;23.43;41.60;94992.66;5014159;28;20210;-80
2021/09/09 09:36:34;;;;;;;3.80;3.22;;;22.70;60.60;;;23.50;41.35;94995.84;5014169;28;20596;-80
2021/09/09 09:39:19;;;;;;;4.72;3.00;;;22.80;60.90;;;23.57;40.89;94977.63;5013719;28;20234;-81
2021/09/09 09:42:02;;;;;;;5.88;3.08;;;22.90;60.50;;;23.65;41.10;94985.09;5016786;28;20224;-80
2021/09/09 09:44:35;;;;;;;4.75;3.40;;;23.00;60.30;;;23.74;41.04;94984.53;5012984;28;20275;-79
2021/09/09 09:47:20;;;;;;;3.80;3.40;;;23.00;60.60;;;23.82;41.13;94978.59;5012531;28;20233;-79
2021/09/09 09:49:54;;;;;;;4.40;2.97;;;23.10;60.40;;;23.93;41.31;94982.88;5025351;28;20200;-80
2021/09/09 09:52:26;;;;;;;9.80;3.22;;;23.20;60.50;;;24.03;40.58;94989.28;4997564;28;20223;-80
2021/09/09 09:54:56;;;;;;;7.95;3.00;;;23.30;60.10;;;24.11;40.14;94988.69;5013694;28;20274;-80
2021/09/09 09:57:26;;;;;;;9.10;3.33;;;23.40;60.00;;;24.16;39.96;94985.16;5013146;28;20195;-80
2021/09/09 09:59:54;;;;;;;3.97;2.95;;;23.50;59.60;;;24.21;40.18;94985.16;5015685;28;20250;-79
2021/09/09 10:02:23;;;;;;;3.88;3.15;;;23.50;60.00;;;24.28;40.11;94982.97;5018126;28;20226;-80
2021/09/09 10:04:51;;;;;;;5.40;3.33;;;23.60;59.60;;;24.37;39.58;94991.22;5012856;28;20219;-80
2021/09/09 10:07:18;;;;;;;6.20;3.30;;;23.70;59.30;;;24.40;39.77;94980.75;5013538;28;20214;-80
2021/09/09 10:09:49;;;;;;;4.35;3.22;;;23.80;59.30;;;24.51;40.13;94983.38;5013589;28;20207;-80
2021/09/09 10:12:17;;;;;;;3.72;3.00;;;23.80;59.90;;;24.59;39.80;94978.19;5016493;28;20199;-80
2021/09/09 10:14:49;;;;;;;4.40;2.95;;;23.90;59.40;;;24.69;39.62;94984.63;5033243;28;20208;-80
2021/09/09 10:17:19;;;;;;;5.65;2.92;;;24.00;59.10;;;24.77;39.39;94974.09;5032696;28;20181;-79
2021/09/09 10:19:47;;;;;;;4.03;3.08;;;24.10;58.70;;;24.85;39.42;94978.06;5011929;28;20192;-79
2021/09/09 10:22:18;;;;;;;4.97;2.90;;;24.10;59.20;;;24.93;38.96;94971.28;5030767;28;20235;-81